Time;durP1;ratioP1;P1;durP2;ratioP2;P2;SDS_P1;SDS_P2;PMS_P1;PMS_P2;Temp;Humidity;BMP_temperature;BMP_pressure;BME280_temperature;BME280_humidity;BME280_pressure;Samples;Min_cycle;Max_cycle;Signal;HPM_P1;HPM_P2
2021/06/04 00:01:28;;;;;;;5.70;4.07;;;24.50;53.40;;;;;;5032799;28;20804;-48
2021/06/04 00:03:55;;;;;;;4.17;3.87;;;24.40;53.60;;;;;;5031986;28;20519;-48
2021/06/04 00:06:22;;;;;;;4.03;3.70;;;24.40;53.80;;;;;;5032912;28;20428;-48
2021/06/04 00:08:49;;;;;;;4.00;3.60;;;24.20;54.20;;;;;;5032291;28;20420;-45
2021/06/04 00:11:31;;;;;;;4.33;3.97;;;24.30;54.00;;;;;;5031291;28;20432;-48
2021/06/04 00:14:05;;;;;;;3.77;3.47;;;24.30;53.90;;;;;;5031922;28;20438;-45
2021/06/04 00:16:36;;;;;;;6.43;3.63;;;24.30;53.90;;;;;;5032675;28;20570;-47
2021/06/04 00:19:09;;;;;;;4.10;3.70;;;24.40;53.90;;;;;;5023916;28;21014;-44
2021/06/04 00:21:39;;;;;;;3.97;3.57;;;24.30;54.00;;;;;;5032456;28;20430;-47
2021/06/04 00:24:07;;;;;;;3.70;3.40;;;24.30;54.00;;;;;;5031492;28;20848;-47
2021/06/04 00:26:36;;;;;;;4.20;3.90;;;24.30;53.90;;;;;;5032500;28;20427;-43
2021/06/04 00:29:03;;;;;;;4.47;4.07;;;24.40;53.80;;;;;;5031725;28;20806;-43
2021/06/04 00:31:29;;;;;;;5.80;3.80;;;24.40;53.70;;;;;;5032800;28;20432;-44
2021/06/04 00:33:55;;;;;;;4.20;3.77;;;24.40;53.80;;;;;;5031513;28;20436;-47
2021/06/04 00:36:24;;;;;;;4.60;4.10;;;24.40;53.90;;;;;;5030738;28;20198;-44
2021/06/04 00:38:49;;;;;;;4.00;3.70;;;24.30;53.90;;;;;;5031432;28;20487;-44
2021/06/04 00:41:26;;;;;;;4.33;4.00;;;24.30;53.90;;;;;;5032346;28;20974;-46
2021/06/04 00:43:53;;;;;;;4.50;4.10;;;24.20;54.10;;;;;;5031189;28;20220;-45
2021/06/04 00:46:20;;;;;;;4.30;3.90;;;24.10;54.30;;;;;;5032582;28;20428;-44
2021/06/04 00:48:46;;;;;;;5.57;4.50;;;24.10;54.30;;;;;;5031500;28;20443;-45
2021/06/04 00:51:25;;;;;;;4.80;4.40;;;24.10;54.40;;;;;;5052198;28;20492;-44
2021/06/04 00:53:52;;;;;;;4.33;3.93;;;24.10;54.50;;;;;;5051028;28;20220;-44
2021/06/04 00:56:20;;;;;;;4.43;4.13;;;24.00;54.40;;;;;;5028048;28;20900;-44
2021/06/04 00:58:47;;;;;;;5.97;3.77;;;24.00;54.30;;;;;;5031159;28;20494;-44
2021/06/04 01:01:17;;;;;;;4.80;4.40;;;24.00;54.30;;;;;;5032104;28;20458;-44
2021/06/04 01:03:57;;;;;;;3.53;3.23;;;24.00;54.20;;;;;;5029639;28;20455;-44
2021/06/04 01:06:33;;;;;;;4.23;3.93;;;23.90;54.40;;;;;;5031827;28;21044;-48
2021/06/04 01:09:23;;;;;;;4.40;4.10;;;23.90;54.60;;;;;;5031735;28;20451;-45
2021/06/04 01:12:07;;;;;;;5.83;4.93;;;23.60;55.10;;;;;;5031695;28;20511;-44
2021/06/04 01:15:09;;;;;;;4.80;4.00;;;23.60;55.50;;;;;;5030716;28;20431;-45
2021/06/04 01:17:41;;;;;;;4.90;4.50;;;23.50;55.70;;;;;;5031344;28;20491;-43
2021/06/04 01:20:20;;;;;;;4.73;4.33;;;23.40;55.90;;;;;;5031241;28;20451;-48
2021/06/04 01:22:51;;;;;;;4.30;4.00;;;23.30;56.30;;;;;;5031214;28;20796;-44
2021/06/04 01:25:17;;;;;;;3.93;3.63;;;23.00;57.00;;;;;;5030931;28;20442;-44
2021/06/04 01:27:47;;;;;;;4.60;4.20;;;23.10;56.90;;;;;;5031499;28;20428;-47
2021/06/04 01:30:28;;;;;;;5.40;4.90;;;23.20;56.50;;;;;;5029257;28;20212;-44
2021/06/04 01:32:58;;;;;;;4.63;4.20;;;23.30;56.30;;;;;;5031050;28;20444;-43
2021/06/04 01:35:47;;;;;;;5.20;4.27;;;23.30;56.00;;;;;;5030936;28;20431;-45
2021/06/04 01:38:16;;;;;;;5.07;4.17;;;23.30;56.00;;;;;;5030934;28;20586;-44
2021/06/04 01:40:47;;;;;;;4.30;3.90;;;23.00;56.80;;;;;;5020307;28;20431;-45
2021/06/04 01:43:17;;;;;;;4.27;3.97;;;22.90;57.10;;;;;;5031073;28;20464;-44
2021/06/04 01:45:49;;;;;;;4.57;3.70;;;22.80;57.50;;;;;;5031513;28;20769;-44
2021/06/04 01:48:19;;;;;;;4.40;4.10;;;22.80;57.20;;;;;;5025439;28;20452;-44
2021/06/04 01:50:50;;;;;;;6.33;4.23;;;22.90;57.20;;;;;;5030523;28;20538;-44
2021/06/04 01:53:21;;;;;;;5.00;4.60;;;22.90;57.20;;;;;;5030687;28;20486;-46
2021/06/04 01:55:51;;;;;;;4.70;4.23;;;22.90;57.20;;;;;;5024729;28;20466;-44
2021/06/04 01:58:28;;;;;;;4.73;4.37;;;22.90;57.40;;;;;;5030856;28;20467;-44
2021/06/04 02:01:02;;;;;;;4.30;4.00;;;22.50;58.50;;;;;;5031366;28;20424;-43
2021/06/04 02:03:27;;;;;;;5.00;4.50;;;22.50;58.50;;;;;;5030651;28;20423;-43
2021/06/04 02:05:56;;;;;;;4.37;4.03;;;22.50;58.20;;;;;;5031256;28;20450;-47
2021/06/04 02:08:43;;;;;;;4.57;4.23;;;22.50;58.40;;;;;;5030460;28;20779;-43
2021/06/04 02:11:11;;;;;;;4.77;4.47;;;22.40;58.50;;;;;;5031143;28;20420;-43
2021/06/04 02:13:41;;;;;;;4.30;4.00;;;22.40;58.50;;;;;;5030124;28;20431;-43
2021/06/04 02:16:19;;;;;;;6.13;4.53;;;22.40;58.40;;;;;;5031093;28;20419;-46
2021/06/04 02:19:03;;;;;;;4.33;4.03;;;22.40;58.50;;;;;;5030368;28;21081;-44
2021/06/04 02:21:38;;;;;;;4.80;4.43;;;22.50;58.40;;;;;;5031385;28;20436;-44
2021/06/04 02:24:54;;;;;;;5.40;4.90;;;22.50;58.20;;;;;;5028505;28;20423;-44
2021/06/04 02:27:28;;;;;;;4.37;4.07;;;22.50;58.10;;;;;;5026782;28;20456;-44
2021/06/04 02:30:00;;;;;;;4.90;4.50;;;22.50;58.30;;;;;;5030754;28;20423;-48
2021/06/04 02:32:34;;;;;;;5.10;4.60;;;22.60;58.20;;;;;;5030640;28;20424;-47
2021/06/04 02:35:25;;;;;;;4.63;4.10;;;22.50;58.30;;;;;;5030456;28;20434;-45
2021/06/04 02:37:57;;;;;;;4.63;3.97;;;22.50;58.50;;;;;;5030487;28;20443;-46
2021/06/04 02:40:37;;;;;;;5.07;4.67;;;22.50;58.60;;;;;;5030106;28;20450;-45
2021/06/04 02:43:24;;;;;;;4.73;4.33;;;22.50;58.80;;;;;;5033129;28;20436;-48
2021/06/04 02:45:56;;;;;;;4.03;3.63;;;22.30;59.00;;;;;;5034416;28;20424;-47
2021/06/04 02:48:23;;;;;;;5.60;4.20;;;22.10;59.80;;;;;;5033785;28;20823;-46
2021/06/04 02:50:57;;;;;;;4.87;4.50;;;22.00;59.70;;;;;;5017934;28;20531;-45
2021/06/04 02:53:23;;;;;;;5.20;4.70;;;22.10;59.40;;;;;;5031536;28;20435;-47
2021/06/04 02:56:03;;;;;;;4.70;4.40;;;22.20;59.20;;;;;;5029758;28;20884;-44
2021/06/04 02:58:29;;;;;;;4.80;4.43;;;22.10;59.10;;;;;;5033666;28;20256;-44
2021/06/04 03:00:55;;;;;;;4.87;4.47;;;22.20;59.00;;;;;;5034169;28;20498;-44
2021/06/04 03:03:21;;;;;;;5.27;4.80;;;22.30;58.80;;;;;;5033159;28;20231;-47
2021/06/04 03:05:46;;;;;;;4.30;4.00;;;22.30;58.60;;;;;;5033920;28;20447;-45
2021/06/04 03:08:12;;;;;;;4.70;4.30;;;22.20;59.10;;;;;;5033812;28;20284;-46
2021/06/04 03:10:45;;;;;;;4.67;4.27;;;22.10;59.30;;;;;;5033901;28;20194;-44
2021/06/04 03:13:15;;;;;;;4.60;4.30;;;22.10;59.50;;;;;;5033720;28;20197;-43
2021/06/04 03:15:46;;;;;;;4.90;4.50;;;21.80;60.60;;;;;;5032166;28;20967;-45
2021/06/04 03:18:26;;;;;;;5.33;4.93;;;21.20;63.00;;;;;;5033382;28;20561;-44
2021/06/04 03:20:52;;;;;;;5.13;4.70;;;21.10;63.60;;;;;;5033897;28;20490;-43
2021/06/04 03:23:21;;;;;;;5.30;4.60;;;21.20;62.80;;;;;;5032836;28;20432;-44
2021/06/04 03:25:50;;;;;;;5.63;5.13;;;21.30;62.30;;;;;;5033439;28;20197;-45
2021/06/04 03:28:19;;;;;;;6.00;4.90;;;21.40;62.00;;;;;;5033287;28;20454;-46
2021/06/04 03:30:47;;;;;;;5.00;4.50;;;21.30;62.50;;;;;;5033689;28;20424;-45
2021/06/04 03:33:17;;;;;;;5.40;4.90;;;21.30;62.50;;;;;;5033079;28;20440;-44
2021/06/04 03:35:43;;;;;;;5.00;4.60;;;21.30;62.60;;;;;;5033533;28;20424;-46
2021/06/04 03:38:12;;;;;;;5.60;5.07;;;21.30;62.80;;;;;;5033022;28;20468;-43
2021/06/04 03:40:38;;;;;;;5.47;5.00;;;21.50;62.20;;;;;;5032971;28;20412;-43
2021/06/04 03:43:06;;;;;;;5.20;4.80;;;21.60;61.60;;;;;;5031542;28;20474;-44
2021/06/04 03:45:37;;;;;;;4.73;4.33;;;21.70;61.10;;;;;;5032613;28;20197;-43
2021/06/04 03:48:04;;;;;;;5.60;5.10;;;21.80;60.90;;;;;;5033588;28;20907;-44
2021/06/04 03:50:31;;;;;;;5.77;5.10;;;21.80;60.70;;;;;;5024689;28;20441;-43
2021/06/04 03:52:56;;;;;;;5.53;5.03;;;21.70;61.10;;;;;;5041575;28;20506;-44
2021/06/04 03:55:24;;;;;;;5.40;4.90;;;21.60;61.50;;;;;;5040668;28;20554;-43
2021/06/04 03:57:51;;;;;;;4.97;4.57;;;21.60;61.80;;;;;;5032742;28;20304;-43
2021/06/04 04:00:33;;;;;;;7.50;5.30;;;21.60;62.00;;;;;;5032468;28;20424;-43
2021/06/04 04:02:59;;;;;;;5.57;5.17;;;21.60;62.30;;;;;;5032667;28;20427;-45
2021/06/04 04:05:25;;;;;;;4.93;4.37;;;21.60;62.10;;;;;;5025394;28;20449;-44
2021/06/04 04:07:51;;;;;;;4.73;4.33;;;21.60;62.00;;;;;;5047743;28;20204;-43
2021/06/04 04:10:19;;;;;;;5.10;4.63;;;21.70;62.00;;;;;;5052214;28;20427;-43
2021/06/04 04:12:47;;;;;;;5.67;5.10;;;21.70;62.20;;;;;;5052605;28;20883;-43
2021/06/04 04:15:17;;;;;;;7.90;4.60;;;21.80;61.90;;;;;;5052183;28;20477;-44
2021/06/04 04:17:47;;;;;;;4.83;4.43;;;21.70;62.40;;;;;;5052583;28;20466;-44
2021/06/04 04:20:20;;;;;;;5.43;4.93;;;21.60;62.50;;;;;;5052116;28;20497;-43
2021/06/04 04:22:46;;;;;;;5.60;5.10;;;21.50;62.70;;;;;;5052273;28;20834;-43
2021/06/04 04:25:13;;;;;;;5.67;5.17;;;21.20;63.60;;;;;;5051713;28;20412;-43
2021/06/04 04:27:39;;;;;;;5.23;4.83;;;21.40;63.10;;;;;;5052330;28;20196;-43
2021/06/04 04:30:11;;;;;;;5.20;4.80;;;21.60;62.40;;;;;;5051815;28;20473;-43
2021/06/04 04:32:37;;;;;;;5.30;4.90;;;21.70;62.30;;;;;;5051620;28;20443;-44
2021/06/04 04:35:06;;;;;;;5.17;4.77;;;21.70;61.80;;;;;;5050136;28;20442;-43
2021/06/04 04:37:32;;;;;;;5.83;5.33;;;21.80;61.80;;;;;;5052276;28;20907;-44
2021/06/04 04:39:57;;;;;;;5.37;4.93;;;21.90;61.50;;;;;;5036472;28;20503;-44
2021/06/04 04:42:24;;;;;;;5.23;4.83;;;22.10;61.20;;;;;;5031921;28;20278;-45
2021/06/04 04:44:50;;;;;;;5.47;4.97;;;22.20;60.80;;;;;;5031624;28;20205;-44
2021/06/04 04:47:18;;;;;;;6.80;5.40;;;22.40;60.50;;;;;;5032281;28;20436;-45
2021/06/04 04:49:44;;;;;;;6.07;5.57;;;22.20;61.20;;;;;;5031602;28;20837;-43
2021/06/04 04:52:12;;;;;;;5.60;5.20;;;22.00;61.80;;;;;;5031792;28;20428;-44
2021/06/04 04:54:53;;;;;;;7.00;5.47;;;21.90;62.00;;;;;;5026193;28;20710;-43
2021/06/04 04:57:21;;;;;;;5.50;5.00;;;21.90;62.50;;;;;;5032138;28;20521;-43
2021/06/04 04:59:46;;;;;;;5.73;5.33;;;22.00;62.70;;;;;;5031619;28;20846;-43
2021/06/04 05:02:12;;;;;;;5.77;5.20;;;22.10;63.10;;;;;;5030351;28;20420;-44
2021/06/04 05:04:38;;;;;;;5.93;5.37;;;22.10;63.40;;;;;;5030520;28;20205;-43
2021/06/04 05:07:05;;;;;;;6.20;5.70;;;22.00;64.00;;;;;;5024686;28;20471;-43
2021/06/04 05:09:30;;;;;;;5.77;5.27;;;22.00;64.50;;;;;;5031096;28;20793;-44
2021/06/04 05:11:56;;;;;;;6.20;5.70;;;22.20;64.00;;;;;;5031607;28;20498;-44
2021/06/04 05:14:22;;;;;;;6.33;5.47;;;22.30;63.50;;;;;;5031189;28;20193;-43
2021/06/04 05:16:47;;;;;;;6.27;5.77;;;22.30;63.50;;;;;;5032121;28;20225;-43
2021/06/04 05:19:13;;;;;;;6.83;5.33;;;22.50;63.00;;;;;;5031035;28;20693;-43
2021/06/04 05:21:39;;;;;;;6.23;5.00;;;22.80;62.20;;;;;;5031952;28;20197;-43
2021/06/04 05:24:06;;;;;;;5.80;5.40;;;23.00;61.50;;;;;;5030330;28;20644;-43
2021/06/04 05:26:32;;;;;;;5.70;5.17;;;23.20;60.60;;;;;;5031885;28;20197;-44
2021/06/04 05:28:57;;;;;;;5.90;5.40;;;23.20;60.30;;;;;;5029673;28;20511;-44
2021/06/04 05:31:23;;;;;;;11.40;5.70;;;23.30;60.20;;;;;;5031452;28;20503;-47
2021/06/04 05:33:52;;;;;;;6.40;5.90;;;23.20;60.80;;;;;;5030651;28;20640;-48
2021/06/04 05:36:31;;;;;;;7.10;5.70;;;23.30;60.50;;;;;;5031560;28;20428;-48
2021/06/04 05:38:57;;;;;;;5.63;5.23;;;23.60;60.10;;;;;;5030635;28;20487;-46
2021/06/04 05:41:25;;;;;;;7.40;6.17;;;23.70;60.00;;;;;;5031362;28;20428;-48
2021/06/04 05:43:51;;;;;;;6.03;5.33;;;23.80;60.20;;;;;;5030367;28;20424;-45
2021/06/04 05:46:19;;;;;;;6.10;5.63;;;23.90;60.00;;;;;;5031747;28;20462;-44
2021/06/04 05:48:45;;;;;;;6.30;5.80;;;24.00;60.10;;;;;;5029287;28;20351;-45
2021/06/04 05:51:18;;;;;;;6.60;5.97;;;24.00;60.30;;;;;;5031617;28;20428;-49
2021/06/04 05:53:44;;;;;;;5.83;5.00;;;24.00;60.10;;;;;;5029171;28;20424;-47
2021/06/04 05:56:13;;;;;;;5.20;4.70;;;24.20;60.60;;;;;;5026605;28;20439;-48
2021/06/04 05:58:39;;;;;;;5.80;5.40;;;24.30;59.50;;;;;;5030633;28;20488;-48
2021/06/04 06:01:24;;;;;;;6.23;5.73;;;24.20;60.70;;;;;;5031387;28;20455;-48
2021/06/04 06:03:50;;;;;;;6.20;5.60;;;24.10;61.00;;;;;;5030592;28;20359;-48
2021/06/04 06:06:16;;;;;;;5.47;5.03;;;24.30;60.50;;;;;;5031287;28;20435;-48
2021/06/04 06:08:43;;;;;;;5.90;5.37;;;24.50;59.70;;;;;;5023515;28;20803;-48
2021/06/04 06:11:10;;;;;;;6.93;6.10;;;24.70;59.40;;;;;;5031234;28;20424;-48
2021/06/04 06:13:37;;;;;;;6.13;5.60;;;24.70;59.40;;;;;;5030566;28;20439;-47
2021/06/04 06:16:03;;;;;;;5.77;5.27;;;24.80;59.30;;;;;;5031163;28;20427;-48
2021/06/04 06:18:29;;;;;;;5.93;5.30;;;24.70;59.60;;;;;;5033737;28;20494;-47
2021/06/04 06:20:56;;;;;;;6.40;5.90;;;24.80;59.30;;;;;;5033111;28;20812;-46
2021/06/04 06:23:28;;;;;;;5.90;5.20;;;25.00;59.00;;;;;;5033781;28;20189;-48
2021/06/04 06:26:01;;;;;;;7.10;6.50;;;25.10;58.90;;;;;;5034787;28;20432;-47
2021/06/04 06:28:33;;;;;;;6.90;6.40;;;25.20;59.00;;;;;;5034423;28;20954;-46
2021/06/04 06:31:03;;;;;;;5.63;5.23;;;25.30;58.30;;;;;;5034949;28;20455;-48
2021/06/04 06:33:29;;;;;;;6.00;5.40;;;25.40;57.90;;;;;;5033892;28;20424;-46
2021/06/04 06:36:02;;;;;;;6.30;5.90;;;25.60;57.40;;;;;;5034756;28;21017;-46
2021/06/04 06:38:29;;;;;;;6.70;6.20;;;25.80;56.90;;;;;;5034034;28;20355;-47
2021/06/04 06:40:57;;;;;;;7.23;5.70;;;25.90;56.60;;;;;;5034413;28;20811;-48
2021/06/04 06:43:27;;;;;;;6.07;5.57;;;26.10;56.30;;;;;;5033367;28;20432;-47
2021/06/04 06:45:53;;;;;;;7.67;6.40;;;26.20;56.00;;;;;;5034531;28;20427;-48
2021/06/04 06:48:19;;;;;;;6.60;6.00;;;26.50;55.80;;;;;;5032060;28;20491;-44
2021/06/04 06:50:46;;;;;;;5.30;4.80;;;26.30;55.90;;;;;;5034376;28;20430;-48
2021/06/04 06:53:14;;;;;;;6.07;5.47;;;26.40;55.70;;;;;;5033680;28;20442;-44
2021/06/04 06:55:42;;;;;;;5.67;5.20;;;26.60;55.30;;;;;;5028758;28;20789;-49
2021/06/04 06:58:08;;;;;;;7.33;4.73;;;26.80;55.10;;;;;;5034053;28;20858;-48
2021/06/04 07:00:37;;;;;;;9.90;4.93;;;27.00;54.90;;;;;;5033630;28;20515;-46
2021/06/04 07:03:04;;;;;;;5.60;5.10;;;27.20;54.10;;;;;;5033716;28;20916;-46
2021/06/04 07:05:31;;;;;;;5.53;5.13;;;27.40;53.10;;;;;;5033749;28;20460;-45
2021/06/04 07:07:56;;;;;;;5.70;5.20;;;27.50;52.30;;;;;;5029808;28;20812;-45
2021/06/04 07:10:27;;;;;;;6.70;5.27;;;27.70;51.90;;;;;;5036648;28;20446;-46
2021/06/04 07:12:53;;;;;;;4.83;4.53;;;27.60;51.40;;;;;;5053184;28;20238;-44
2021/06/04 07:15:21;;;;;;;6.00;4.27;;;27.80;51.60;;;;;;5052009;28;20423;-48
2021/06/04 07:17:47;;;;;;;4.70;4.30;;;28.00;51.80;;;;;;5036114;28;20225;-46
2021/06/04 07:20:16;;;;;;;4.97;4.63;;;28.10;50.70;;;;;;5032873;28;20491;-48
2021/06/04 07:22:42;;;;;;;5.83;4.07;;;28.30;51.00;;;;;;5033357;28;20201;-48
2021/06/04 07:25:14;;;;;;;4.93;4.50;;;28.50;50.70;;;;;;5033173;28;20435;-45
2021/06/04 07:27:41;;;;;;;5.10;4.60;;;28.80;50.50;;;;;;5033192;28;20451;-46
2021/06/04 07:30:10;;;;;;;4.77;4.33;;;29.00;49.30;;;;;;5033281;28;20970;-45
2021/06/04 07:32:38;;;;;;;4.57;4.17;;;29.20;48.50;;;;;;5033092;28;20431;-45
2021/06/04 07:35:08;;;;;;;4.90;4.50;;;29.20;48.30;;;;;;5032937;28;20923;-44
2021/06/04 07:37:34;;;;;;;5.93;4.70;;;29.20;48.40;;;;;;5031907;28;20455;-44
2021/06/04 07:40:00;;;;;;;6.63;5.10;;;29.10;48.40;;;;;;5031054;28;20487;-46
2021/06/04 07:42:26;;;;;;;6.83;5.50;;;28.90;48.30;;;;;;5033340;28;20273;-49
2021/06/04 07:44:51;;;;;;;5.40;4.90;;;28.90;48.60;;;;;;5032513;28;20197;-44
2021/06/04 07:47:17;;;;;;;5.93;5.20;;;28.70;49.10;;;;;;5033358;28;20482;-49
2021/06/04 07:49:43;;;;;;;6.40;4.60;;;28.70;49.10;;;;;;5032569;28;20189;-46
2021/06/04 07:52:08;;;;;;;4.73;4.33;;;28.80;49.10;;;;;;5032947;28;20189;-45
2021/06/04 07:54:34;;;;;;;5.23;4.73;;;28.90;49.40;;;;;;5027756;28;20194;-44
2021/06/04 07:57:01;;;;;;;4.93;4.33;;;29.00;48.40;;;;;;5033462;28;20197;-47
2021/06/04 07:59:27;;;;;;;7.30;4.57;;;29.00;48.00;;;;;;5032322;28;20225;-48
2021/06/04 08:01:53;;;;;;;4.93;4.10;;;29.10;48.30;;;;;;5032759;28;20431;-46
2021/06/04 08:04:19;;;;;;;5.07;4.67;;;29.20;48.70;;;;;;5032195;28;20477;-48
2021/06/04 08:06:44;;;;;;;4.80;4.40;;;29.30;48.70;;;;;;5031354;28;20428;-47
2021/06/04 08:09:12;;;;;;;5.50;4.77;;;29.40;47.90;;;;;;5032376;28;20196;-44
2021/06/04 08:11:52;;;;;;;4.93;4.43;;;29.50;47.60;;;;;;5032592;28;20193;-47
2021/06/04 08:14:21;;;;;;;6.13;3.97;;;29.60;47.20;;;;;;5032090;28;20462;-47
2021/06/04 08:16:47;;;;;;;9.33;4.50;;;29.60;47.40;;;;;;5032526;28;20471;-44
2021/06/04 08:19:14;;;;;;;5.50;4.27;;;29.60;47.50;;;;;;5027671;28;20486;-47
2021/06/04 08:21:44;;;;;;;3.90;3.60;;;29.70;46.70;;;;;;5052299;28;20426;-44
2021/06/04 08:24:13;;;;;;;4.57;4.10;;;29.80;46.50;;;;;;5051808;28;20432;-46
2021/06/04 08:26:40;;;;;;;4.30;3.73;;;29.90;46.10;;;;;;5052550;28;20968;-48
2021/06/04 08:29:08;;;;;;;3.70;3.40;;;29.90;45.90;;;;;;5051789;28;20434;-44
2021/06/04 08:31:34;;;;;;;4.43;4.13;;;29.70;46.30;;;;;;5052198;28;20800;-47
2021/06/04 08:34:00;;;;;;;4.07;3.73;;;29.80;46.10;;;;;;5050698;28;20427;-49
2021/06/04 08:36:31;;;;;;;4.93;4.00;;;29.90;46.00;;;;;;5052369;28;20441;-48
2021/06/04 08:38:59;;;;;;;4.77;3.83;;;30.10;45.20;;;;;;5044409;28;20259;-48
2021/06/04 08:42:00;;;;;;;3.97;3.67;;;30.30;45.30;;;;;;5031778;28;20420;-48
2021/06/04 08:44:44;;;;;;;6.33;3.67;;;30.40;44.60;;;;;;5031797;28;20509;-46
2021/06/04 08:47:18;;;;;;;4.17;3.73;;;30.50;44.40;;;;;;5032312;28;20427;-49
2021/06/04 08:49:46;;;;;;;3.90;3.60;;;30.70;44.50;;;;;;5031617;28;20436;-49
2021/06/04 08:52:40;;;;;;;5.23;3.80;;;30.80;44.80;;;;;;5031817;28;20975;-48
2021/06/04 08:55:32;;;;;;;3.80;3.50;;;31.00;44.20;;;;;;5027137;28;20432;-47
2021/06/04 08:58:34;;;;;;;4.10;3.80;;;31.30;44.00;;;;;;5032182;28;20428;-49
2021/06/04 09:01:06;;;;;;;3.80;3.60;;;31.40;43.30;;;;;;5030353;28;20445;-47
2021/06/04 09:03:38;;;;;;;3.40;3.10;;;31.40;42.40;;;;;;5031238;28;20541;-45
2021/06/04 09:06:12;;;;;;;4.00;3.60;;;31.60;42.00;;;;;;5032122;28;20420;-46
2021/06/04 09:08:39;;;;;;;3.90;3.50;;;31.70;42.70;;;;;;5031490;28;20789;-45
2021/06/04 09:11:15;;;;;;;5.10;3.73;;;31.80;43.20;;;;;;5031780;28;20442;-48
2021/06/04 09:13:41;;;;;;;3.90;3.57;;;32.00;44.40;;;;;;5031041;28;20424;-46
2021/06/04 09:16:27;;;;;;;3.50;3.30;;;32.20;43.30;;;;;;5031693;28;20512;-47
2021/06/04 09:19:03;;;;;;;3.10;2.80;;;32.40;42.30;;;;;;5027347;28;20696;-48
2021/06/04 09:21:33;;;;;;;3.63;3.33;;;32.50;42.60;;;;;;5018367;28;20444;-44
2021/06/04 09:24:03;;;;;;;3.27;3.07;;;32.80;41.20;;;;;;5031284;28;20424;-46
2021/06/04 09:26:30;;;;;;;3.30;3.00;;;33.00;39.20;;;;;;5030177;28;20440;-46
2021/06/04 09:29:02;;;;;;;6.97;3.60;;;33.20;38.40;;;;;;5030915;28;20907;-45
2021/06/04 09:31:35;;;;;;;3.23;3.03;;;33.30;39.90;;;;;;5030098;28;20442;-46
2021/06/04 09:34:11;;;;;;;7.20;3.43;;;33.50;39.50;;;;;;5031036;28;20428;-47
2021/06/04 09:36:55;;;;;;;3.60;3.20;;;33.70;39.10;;;;;;5031511;28;20515;-44
2021/06/04 09:39:32;;;;;;;3.30;2.57;;;33.90;38.30;;;;;;5030628;28;20506;-48
2021/06/04 09:42:27;;;;;;;3.40;3.17;;;34.10;38.30;;;;;;5030984;28;20464;-44
2021/06/04 09:45:00;;;;;;;2.80;2.60;;;34.40;37.50;;;;;;5029943;28;20440;-46
2021/06/04 09:47:35;;;;;;;3.00;2.80;;;34.50;37.30;;;;;;5031666;28;20448;-45
2021/06/04 09:50:36;;;;;;;3.23;3.03;;;34.70;37.30;;;;;;5030924;28;20432;-49
2021/06/04 09:53:10;;;;;;;3.60;3.30;;;34.90;37.10;;;;;;5033417;28;20442;-45
2021/06/04 09:55:40;;;;;;;5.40;2.97;;;35.00;35.60;;;;;;5030422;28;20412;-45
2021/06/04 09:58:12;;;;;;;5.03;3.53;;;35.10;36.70;;;;;;5035173;28;20427;-46
2021/06/04 10:00:54;;;;;;;3.67;3.37;;;35.10;36.70;;;;;;5035060;28;20499;-49
2021/06/04 10:03:28;;;;;;;5.33;3.67;;;35.20;35.80;;;;;;5033929;28;20833;-45
2021/06/04 10:06:06;;;;;;;5.20;3.20;;;35.30;36.60;;;;;;5035342;28;20424;-45
2021/06/04 10:08:43;;;;;;;4.00;3.70;;;35.50;37.20;;;;;;5034739;28;20550;-46
2021/06/04 10:11:21;;;;;;;3.80;3.60;;;35.60;37.10;;;;;;5034938;28;20779;-49
2021/06/04 10:14:31;;;;;;;4.47;4.07;;;35.60;36.60;;;;;;5034254;28;20518;-47
2021/06/04 10:17:14;;;;;;;4.00;3.67;;;35.60;37.70;;;;;;5035324;28;20467;-44
2021/06/04 10:19:47;;;;;;;4.47;3.67;;;35.60;37.00;;;;;;5029529;28;20525;-45
2021/06/04 10:22:18;;;;;;;4.53;4.13;;;35.70;36.90;;;;;;5045256;28;20431;-45
2021/06/04 10:24:49;;;;;;;4.10;3.47;;;35.80;35.90;;;;;;5054255;28;20423;-45
2021/06/04 10:27:39;;;;;;;3.80;3.50;;;35.80;36.80;;;;;;5054538;28;20443;-45
2021/06/04 10:30:08;;;;;;;8.00;3.87;;;35.90;36.90;;;;;;5019434;28;20460;-47
2021/06/04 10:32:45;;;;;;;4.87;4.40;;;36.00;36.30;;;;;;5033961;28;20464;-44
2021/06/04 10:35:21;;;;;;;3.60;3.40;;;36.00;35.80;;;;;;5033961;28;20424;-45
2021/06/04 10:37:49;;;;;;;4.37;4.07;;;36.20;36.10;;;;;;5034396;28;20435;-47
2021/06/04 10:40:21;;;;;;;4.07;3.77;;;36.50;34.50;;;;;;5033753;28;20479;-47
2021/06/04 10:43:00;;;;;;;4.47;3.90;;;36.50;34.70;;;;;;5034311;28;20478;-45
2021/06/04 10:45:31;;;;;;;3.47;3.27;;;36.50;33.80;;;;;;5032310;28;20431;-45
2021/06/04 10:48:03;;;;;;;4.53;3.60;;;36.50;35.30;;;;;;5034398;28;20520;-45
2021/06/04 10:50:34;;;;;;;3.80;3.40;;;36.50;33.70;;;;;;5033975;28;20942;-45
2021/06/04 10:53:38;;;;;;;5.60;3.90;;;36.60;34.20;;;;;;5034302;28;20431;-46
2021/06/04 10:56:10;;;;;;;4.10;3.70;;;36.60;35.00;;;;;;5022911;28;20801;-48
2021/06/04 10:59:01;;;;;;;5.13;4.00;;;36.60;33.50;;;;;;5028529;28;20499;-45
2021/06/04 11:01:38;;;;;;;4.37;3.60;;;36.70;33.80;;;;;;5028821;28;20626;-45
2021/06/04 11:04:20;;;;;;;4.30;4.00;;;36.70;33.00;;;;;;5023541;28;20443;-45
2021/06/04 11:06:48;;;;;;;4.00;3.70;;;36.70;32.90;;;;;;5027236;28;20943;-45
2021/06/04 11:09:26;;;;;;;4.00;3.27;;;36.80;33.70;;;;;;5025970;28;20806;-45
2021/06/04 11:12:10;;;;;;;4.10;3.60;;;36.80;34.40;;;;;;5029805;28;20447;-45
2021/06/04 11:15:01;;;;;;;3.43;3.03;;;36.70;34.30;;;;;;5025170;28;20432;-44
2021/06/04 11:17:45;;;;;;;3.93;3.57;;;36.70;34.90;;;;;;5018167;28;20475;-44
2021/06/04 11:20:23;;;;;;;3.80;3.50;;;36.70;34.40;;;;;;5022990;28;20492;-47
2021/06/04 11:23:11;;;;;;;7.37;3.97;;;36.40;34.70;;;;;;5025706;28;20505;-47
2021/06/04 11:25:50;;;;;;;4.63;3.93;;;36.20;34.80;;;;;;5027337;28;20480;-48
2021/06/04 11:28:36;;;;;;;4.93;4.10;;;35.90;35.00;;;;;;5031559;28;20444;-48
2021/06/04 11:31:05;;;;;;;3.93;3.63;;;35.70;35.70;;;;;;5020123;28;20452;-47
2021/06/04 11:33:35;;;;;;;4.27;3.90;;;35.60;35.80;;;;;;5042038;28;20432;-48
2021/06/04 11:36:18;;;;;;;4.60;3.60;;;35.60;35.40;;;;;;5018799;28;20963;-48
2021/06/04 11:38:52;;;;;;;4.50;4.20;;;35.40;35.00;;;;;;5020616;28;20490;-47
2021/06/04 11:41:17;;;;;;;7.07;3.43;;;35.10;35.80;;;;;;5030820;28;20447;-45
2021/06/04 11:43:47;;;;;;;3.87;3.17;;;34.60;35.60;;;;;;5020044;28;20523;-44
2021/06/04 11:46:24;;;;;;;6.20;3.30;;;34.10;36.20;;;;;;5018911;28;20198;-44
2021/06/04 11:48:57;;;;;;;3.00;2.70;;;33.50;37.10;;;;;;5032127;28;20449;-44
2021/06/04 11:51:28;;;;;;;4.80;3.17;;;32.90;38.70;;;;;;5030427;28;20440;-43
2021/06/04 11:53:56;;;;;;;4.30;3.40;;;32.50;40.10;;;;;;5021477;28;20432;-47
2021/06/04 11:56:37;;;;;;;3.90;3.60;;;31.80;41.70;;;;;;5025591;28;20440;-45
2021/06/04 11:59:05;;;;;;;5.60;3.67;;;30.10;43.50;;;;;;5018849;28;20634;-49
2021/06/04 12:01:42;;;;;;;3.80;2.47;;;29.00;45.40;;;;;;5018461;28;20444;-48
2021/06/04 12:04:10;;;;;;;6.10;2.67;;;28.80;46.80;;;;;;5026299;28;20567;-47
2021/06/04 12:06:57;;;;;;;3.00;2.30;;;28.60;47.10;;;;;;5028573;28;20444;-47
2021/06/04 12:09:31;;;;;;;2.33;1.97;;;29.10;44.70;;;;;;5013726;28;20441;-50
2021/06/04 12:12:16;;;;;;;3.00;2.40;;;29.50;45.00;;;;;;5027883;28;20439;-46
2021/06/04 12:15:02;;;;;;;4.13;2.47;;;29.70;45.90;;;;;;5022895;28;20780;-47
2021/06/04 12:17:45;;;;;;;4.07;3.03;;;29.50;46.00;;;;;;5027642;28;20481;-49
2021/06/04 12:20:29;;;;;;;4.37;2.50;;;28.90;47.60;;;;;;5021207;28;20484;-49
2021/06/04 12:23:03;;;;;;;3.63;2.37;;;28.60;48.70;;;;;;5024162;28;20454;-47
2021/06/04 12:25:43;;;;;;;3.13;2.60;;;28.20;52.00;;;;;;5030490;28;20863;-49
2021/06/04 12:28:37;;;;;;;2.97;2.67;;;28.40;51.90;;;;;;5029504;28;20514;-47
2021/06/04 12:31:09;;;;;;;3.70;2.97;;;28.80;51.00;;;;;;5015739;28;20443;-47
2021/06/04 12:33:46;;;;;;;3.53;3.23;;;28.90;49.80;;;;;;5028166;28;20440;-47
2021/06/04 12:36:33;;;;;;;3.93;2.97;;;29.10;48.80;;;;;;5013270;28;20449;-48
2021/06/04 12:39:20;;;;;;;3.30;3.00;;;28.90;49.30;;;;;;5021550;28;20483;-47
2021/06/04 12:42:00;;;;;;;5.23;3.10;;;28.50;49.80;;;;;;5025069;28;20486;-47
2021/06/04 12:44:25;;;;;;;5.30;2.77;;;28.10;50.70;;;;;;5030524;28;20444;-47
2021/06/04 12:46:51;;;;;;;3.70;3.13;;;27.70;51.30;;;;;;5024018;28;20539;-45
2021/06/04 12:49:19;;;;;;;3.33;2.50;;;27.30;52.00;;;;;;5020040;28;20194;-46
2021/06/04 12:51:47;;;;;;;6.77;2.50;;;27.20;52.70;;;;;;5021378;28;20197;-44
2021/06/04 12:54:21;;;;;;;3.43;2.70;;;27.20;52.50;;;;;;5019991;28;20535;-47
2021/06/04 12:56:54;;;;;;;2.60;2.13;;;27.30;50.90;;;;;;5022131;28;20435;-44
2021/06/04 12:59:25;;;;;;;3.97;2.53;;;26.90;51.00;;;;;;5034374;28;20520;-47
2021/06/04 13:02:08;;;;;;;4.10;3.03;;;26.80;52.00;;;;;;5018729;28;20437;-46
2021/06/04 13:04:40;;;;;;;3.27;2.67;;;26.80;51.90;;;;;;5021397;28;20501;-47
2021/06/04 13:07:24;;;;;;;4.13;2.57;;;26.80;52.10;;;;;;5018343;28;20798;-44
2021/06/04 13:10:07;;;;;;;2.97;2.30;;;26.90;51.50;;;;;;5023181;28;20480;-48
2021/06/04 13:12:34;;;;;;;3.37;3.07;;;27.10;51.10;;;;;;5022859;28;20543;-43
2021/06/04 13:15:21;;;;;;;5.67;2.40;;;27.10;51.20;;;;;;5025140;28;20436;-43